Time;durP1;ratioP1;P1;durP2;ratioP2;P2;SDS_P1;SDS_P2;PMS_P1;PMS_P2;Temp;Humidity;BMP_temperature;BMP_pressure;BME280_temperature;BME280_humidity;BME280_pressure;Samples;Min_cycle;Max_cycle;Signal;HPM_P1;HPM_P2
2022/02/23 00:00:16;;;;;;;23.90;4.00;;;;;;;;;;4944103;28;20030;-60
2022/02/23 00:02:41;;;;;;;30.98;3.42;;;;;;;;;;4944993;28;20200;-60
2022/02/23 00:05:07;;;;;;;34.53;3.40;;;;;;;;;;4944791;28;20581;-60
2022/02/23 00:07:35;;;;;;;27.10;2.78;;;;;;;;;;4942059;28;20884;-62
2022/02/23 00:10:05;;;;;;;28.27;3.00;;;;;;;;;;4942455;28;20070;-60
2022/02/23 00:12:31;;;;;;;41.47;3.83;;;;;;;;;;4959507;28;20037;-60
2022/02/23 00:14:59;;;;;;;10.40;2.25;;;;;;;;;;4957042;28;20034;-60
2022/02/23 00:17:27;;;;;;;27.08;3.22;;;;;;;;;;4958752;28;20210;-59
2022/02/23 00:19:57;;;;;;;26.48;3.33;;;;;;;;;;4939919;28;20849;-60
2022/02/23 00:22:23;;;;;;;38.35;2.80;;;;;;;;;;4959931;28;20045;-59
2022/02/23 00:24:51;;;;;;;27.35;3.33;;;;;;;;;;4943255;28;20125;-60
2022/02/23 00:27:17;;;;;;;21.27;3.30;;;;;;;;;;4956909;28;21231;-60
2022/02/23 00:29:47;;;;;;;29.70;3.03;;;;;;;;;;4958646;28;20037;-60
2022/02/23 00:32:15;;;;;;;21.92;2.80;;;;;;;;;;4944304;28;20104;-60
2022/02/23 00:34:40;;;;;;;19.05;2.83;;;;;;;;;;4958254;28;20112;-60
2022/02/23 00:37:09;;;;;;;25.48;2.95;;;;;;;;;;4944190;28;20049;-60
2022/02/23 00:39:37;;;;;;;25.40;2.65;;;;;;;;;;4956908;28;20703;-60
2022/02/23 00:42:09;;;;;;;30.77;3.72;;;;;;;;;;4909633;28;21646;-60
2022/02/23 00:44:37;;;;;;;30.08;2.63;;;;;;;;;;4919156;28;20074;-60
2022/02/23 00:47:05;;;;;;;20.50;4.00;;;;;;;;;;4942533;28;20037;-59
2022/02/23 00:49:30;;;;;;;14.88;2.97;;;;;;;;;;4923574;28;20075;-59
2022/02/23 00:51:58;;;;;;;32.58;3.20;;;;;;;;;;4960020;28;20037;-60
2022/02/23 00:54:26;;;;;;;46.53;3.60;;;;;;;;;;4949234;28;20097;-60
2022/02/23 00:56:53;;;;;;;18.85;2.90;;;;;;;;;;4959232;28;20824;-60
2022/02/23 00:59:19;;;;;;;14.63;2.60;;;;;;;;;;4961984;28;20088;-61
2022/02/23 01:01:50;;;;;;;25.08;2.67;;;;;;;;;;4955546;28;20043;-59
2022/02/23 01:04:15;;;;;;;19.45;3.60;;;;;;;;;;4937543;28;20043;-61
2022/02/23 01:06:41;;;;;;;20.85;2.35;;;;;;;;;;4971978;28;20019;-59
2022/02/23 01:09:09;;;;;;;18.38;3.63;;;;;;;;;;4954737;28;20043;-59
2022/02/23 01:11:39;;;;;;;27.40;2.80;;;;;;;;;;4958067;28;20041;-59
2022/02/23 01:14:10;;;;;;;40.97;4.60;;;;;;;;;;4946307;28;20969;-60
2022/02/23 01:16:38;;;;;;;18.67;2.30;;;;;;;;;;4978080;28;20046;-60
2022/02/23 01:19:11;;;;;;;25.58;2.95;;;;;;;;;;4961150;28;20045;-60
2022/02/23 01:21:38;;;;;;;23.50;2.97;;;;;;;;;;4948256;28;20042;-60
2022/02/23 01:24:06;;;;;;;12.65;2.78;;;;;;;;;;4947055;28;20058;-59
2022/02/23 01:26:34;;;;;;;26.02;3.17;;;;;;;;;;4976068;28;20031;-59
2022/02/23 01:29:05;;;;;;;24.13;2.88;;;;;;;;;;4923172;28;20204;-59
2022/02/23 01:31:30;;;;;;;28.58;3.10;;;;;;;;;;4955004;28;20045;-60
2022/02/23 01:33:56;;;;;;;18.27;2.72;;;;;;;;;;4959301;28;20027;-59
2022/02/23 01:36:24;;;;;;;21.92;3.00;;;;;;;;;;4969968;28;20031;-59
2022/02/23 01:38:49;;;;;;;24.50;2.47;;;;;;;;;;4932563;28;20542;-60
2022/02/23 01:41:19;;;;;;;15.00;2.53;;;;;;;;;;4958394;28;20053;-60
2022/02/23 01:43:44;;;;;;;25.23;3.03;;;;;;;;;;4953229;28;20374;-57
2022/02/23 01:46:12;;;;;;;18.42;3.92;;;;;;;;;;4960270;28;20071;-58
2022/02/23 01:48:40;;;;;;;23.20;2.08;;;;;;;;;;4946778;28;20474;-60
2022/02/23 01:51:05;;;;;;;21.17;2.97;;;;;;;;;;4932381;28;20160;-60
2022/02/23 01:53:36;;;;;;;12.60;2.20;;;;;;;;;;4960878;28;20120;-60
2022/02/23 01:56:12;;;;;;;21.25;2.60;;;;;;;;;;4954105;28;20030;-59
2022/02/23 01:58:40;;;;;;;28.67;3.35;;;;;;;;;;4948095;28;20036;-59
2022/02/23 02:01:06;;;;;;;35.17;2.95;;;;;;;;;;4961371;28;20030;-61
2022/02/23 02:03:34;;;;;;;17.33;2.67;;;;;;;;;;4964137;28;20042;-58
2022/02/23 02:05:59;;;;;;;29.30;3.05;;;;;;;;;;4959713;28;20026;-58
2022/02/23 02:08:25;;;;;;;27.50;3.50;;;;;;;;;;4947545;28;20038;-58
2022/02/23 02:10:50;;;;;;;34.20;3.45;;;;;;;;;;4941674;28;20034;-61
2022/02/23 02:13:18;;;;;;;16.48;2.10;;;;;;;;;;4960871;28;20117;-60
2022/02/23 02:15:48;;;;;;;25.60;3.28;;;;;;;;;;4943986;28;20105;-59
2022/02/23 02:18:17;;;;;;;21.83;3.10;;;;;;;;;;4961464;28;20137;-60
2022/02/23 02:20:42;;;;;;;32.80;4.10;;;;;;;;;;4960081;28;21465;-60
2022/02/23 02:23:10;;;;;;;26.98;2.85;;;;;;;;;;4939651;28;20050;-61
2022/02/23 02:25:39;;;;;;;21.73;2.67;;;;;;;;;;4962454;28;20026;-60
2022/02/23 02:28:07;;;;;;;23.50;2.90;;;;;;;;;;4962847;28;20046;-59
2022/02/23 02:30:35;;;;;;;17.80;2.30;;;;;;;;;;4962192;28;20030;-59
2022/02/23 02:33:03;;;;;;;27.55;3.30;;;;;;;;;;4950130;28;20076;-59
2022/02/23 02:35:36;;;;;;;18.48;2.30;;;;;;;;;;4965219;28;20037;-58
2022/02/23 02:38:05;;;;;;;29.10;2.88;;;;;;;;;;4963769;28;20494;-59
2022/02/23 02:40:38;;;;;;;25.70;2.25;;;;;;;;;;4965141;28;20038;-59
2022/02/23 02:43:05;;;;;;;18.60;3.20;;;;;;;;;;4961735;28;20053;-59
2022/02/23 02:45:33;;;;;;;20.08;2.58;;;;;;;;;;4960463;28;20488;-59
2022/02/23 02:47:59;;;;;;;22.15;1.98;;;;;;;;;;4963589;28;20066;-59
2022/02/23 02:50:27;;;;;;;12.07;2.97;;;;;;;;;;4960069;28;20037;-59
2022/02/23 02:53:00;;;;;;;25.23;3.03;;;;;;;;;;4943493;28;20118;-59
2022/02/23 02:55:28;;;;;;;19.52;3.10;;;;;;;;;;4965953;28;20129;-60
2022/02/23 02:57:53;;;;;;;33.85;2.28;;;;;;;;;;4981468;28;20033;-58
2022/02/23 03:00:21;;;;;;;30.92;3.13;;;;;;;;;;4935683;28;20148;-59
2022/02/23 03:02:47;;;;;;;20.35;2.53;;;;;;;;;;4949393;28;20490;-59
2022/02/23 03:05:12;;;;;;;23.05;2.92;;;;;;;;;;4936125;28;21034;-59
2022/02/23 03:07:40;;;;;;;19.45;3.30;;;;;;;;;;4964882;28;20038;-60
2022/02/23 03:10:08;;;;;;;24.48;2.83;;;;;;;;;;4966473;28;20034;-60
2022/02/23 03:12:34;;;;;;;25.15;2.75;;;;;;;;;;4977976;28;20026;-59
2022/02/23 03:15:02;;;;;;;31.08;3.22;;;;;;;;;;4981246;28;20564;-59
2022/02/23 03:17:35;;;;;;;27.58;4.28;;;;;;;;;;4966826;28;20037;-58
2022/02/23 03:20:04;;;;;;;36.25;3.75;;;;;;;;;;4944340;28;20120;-59
2022/02/23 03:22:34;;;;;;;13.75;1.88;;;;;;;;;;4980964;28;20158;-59
2022/02/23 03:24:59;;;;;;;30.17;2.83;;;;;;;;;;4979028;28;20034;-59
2022/02/23 03:27:29;;;;;;;19.38;2.85;;;;;;;;;;4966558;28;20058;-59
2022/02/23 03:29:55;;;;;;;18.80;3.03;;;;;;;;;;4964270;28;20035;-59
2022/02/23 03:32:38;;;;;;;16.73;2.60;;;;;;;;;;4969386;28;20034;-59
2022/02/23 03:35:04;;;;;;;17.58;2.55;;;;;;;;;;4980790;28;20882;-59
2022/02/23 03:37:32;;;;;;;29.40;3.45;;;;;;;;;;4968420;28;20068;-59
2022/02/23 03:40:01;;;;;;;37.67;5.15;;;;;;;;;;4968430;28;20513;-59
2022/02/23 03:42:30;;;;;;;22.50;3.75;;;;;;;;;;4978889;28;20123;-59
2022/02/23 03:45:01;;;;;;;29.63;2.80;;;;;;;;;;4964765;28;20052;-59
2022/02/23 03:47:29;;;;;;;59.00;4.93;;;;;;;;;;4978386;28;20045;-60
2022/02/23 03:49:57;;;;;;;32.78;3.25;;;;;;;;;;4944475;28;20042;-59
2022/02/23 03:52:27;;;;;;;14.85;2.70;;;;;;;;;;4964760;28;20030;-59
2022/02/23 03:54:56;;;;;;;15.82;3.63;;;;;;;;;;4952189;28;20057;-60
2022/02/23 03:57:21;;;;;;;33.63;3.50;;;;;;;;;;4979172;28;20088;-59
2022/02/23 03:59:49;;;;;;;18.25;3.20;;;;;;;;;;4980853;28;20041;-59
2022/02/23 04:02:19;;;;;;;27.60;2.88;;;;;;;;;;4964555;28;20037;-59
2022/02/23 04:04:44;;;;;;;29.75;3.53;;;;;;;;;;4982022;28;20037;-59
2022/02/23 04:07:13;;;;;;;25.58;2.17;;;;;;;;;;4965619;28;20041;-59
2022/02/23 04:09:38;;;;;;;26.83;3.35;;;;;;;;;;4948526;28;20037;-59
2022/02/23 04:12:34;;;;;;;19.05;2.80;;;;;;;;;;4978745;28;20084;-59
2022/02/23 04:15:00;;;;;;;23.05;2.97;;;;;;;;;;4979027;28;20131;-60
2022/02/23 04:17:30;;;;;;;19.38;2.78;;;;;;;;;;4978665;28;20072;-59
2022/02/23 04:19:58;;;;;;;28.30;2.28;;;;;;;;;;4976953;28;20063;-59
2022/02/23 04:22:29;;;;;;;40.20;3.00;;;;;;;;;;4981595;28;20037;-59
2022/02/23 04:24:56;;;;;;;22.63;2.33;;;;;;;;;;4947521;28;20176;-59
2022/02/23 04:27:22;;;;;;;16.77;2.28;;;;;;;;;;4964049;28;20102;-60
2022/02/23 04:29:50;;;;;;;18.98;3.55;;;;;;;;;;4967085;28;20057;-60
2022/02/23 04:32:21;;;;;;;28.92;2.60;;;;;;;;;;4964967;28;20052;-60
2022/02/23 04:34:49;;;;;;;25.10;3.80;;;;;;;;;;4979837;28;20033;-60
2022/02/23 04:37:15;;;;;;;22.80;2.58;;;;;;;;;;4963875;28;20028;-60
2022/02/23 04:39:42;;;;;;;20.42;3.35;;;;;;;;;;4963903;28;20053;-61
2022/02/23 04:42:10;;;;;;;17.73;2.45;;;;;;;;;;4976449;28;20488;-60
2022/02/23 04:44:39;;;;;;;19.48;2.30;;;;;;;;;;4965067;28;20037;-60
2022/02/23 04:47:09;;;;;;;34.97;2.60;;;;;;;;;;4978191;28;20041;-60
2022/02/23 04:49:34;;;;;;;13.15;2.92;;;;;;;;;;4977411;28;20038;-61
2022/02/23 04:52:00;;;;;;;22.40;2.53;;;;;;;;;;4977658;28;20749;-60
2022/02/23 04:54:28;;;;;;;11.95;1.95;;;;;;;;;;4957970;28;20442;-60
2022/02/23 04:56:53;;;;;;;19.20;2.67;;;;;;;;;;4957893;28;20576;-60
2022/02/23 04:59:36;;;;;;;20.65;2.72;;;;;;;;;;4950270;28;20520;-61
2022/02/23 05:02:09;;;;;;;14.95;2.35;;;;;;;;;;4941605;28;20121;-60
2022/02/23 05:04:34;;;;;;;24.48;2.85;;;;;;;;;;4946560;28;20057;-60
2022/02/23 05:07:00;;;;;;;16.95;2.33;;;;;;;;;;4946023;28;20546;-60
2022/02/23 05:09:31;;;;;;;22.60;3.25;;;;;;;;;;4946623;28;20124;-61
2022/02/23 05:11:59;;;;;;;14.88;2.40;;;;;;;;;;4959237;28;20041;-60
2022/02/23 05:14:29;;;;;;;14.90;2.15;;;;;;;;;;4947254;28;20033;-60
2022/02/23 05:16:55;;;;;;;32.25;3.00;;;;;;;;;;4961142;28;20031;-60
2022/02/23 05:19:35;;;;;;;20.73;2.70;;;;;;;;;;4959157;28;20050;-60
2022/02/23 05:22:03;;;;;;;25.42;3.25;;;;;;;;;;4944545;28;20039;-60
2022/02/23 05:24:28;;;;;;;22.13;2.40;;;;;;;;;;4959614;28;20047;-60
2022/02/23 05:26:59;;;;;;;13.57;2.17;;;;;;;;;;4958325;28;20042;-60
2022/02/23 05:29:25;;;;;;;17.60;2.42;;;;;;;;;;4944727;28;20497;-61
2022/02/23 05:31:53;;;;;;;19.23;3.60;;;;;;;;;;4961318;28;20049;-61
2022/02/23 05:34:19;;;;;;;18.17;2.13;;;;;;;;;;4941934;28;20031;-61
2022/02/23 05:36:47;;;;;;;16.70;2.72;;;;;;;;;;4961788;28;20139;-61
2022/02/23 05:39:15;;;;;;;15.63;2.28;;;;;;;;;;4945813;28;20042;-61
2022/02/23 05:41:43;;;;;;;12.40;2.25;;;;;;;;;;4945744;28;20118;-62
2022/02/23 05:44:09;;;;;;;16.63;2.60;;;;;;;;;;4928053;28;20038;-61
2022/02/23 05:46:37;;;;;;;16.80;2.55;;;;;;;;;;4961132;28;20082;-61
2022/02/23 05:49:09;;;;;;;16.70;2.00;;;;;;;;;;4945029;28;20045;-60
2022/02/23 05:51:38;;;;;;;20.10;2.25;;;;;;;;;;4929420;28;20030;-60
2022/02/23 05:54:07;;;;;;;23.75;2.70;;;;;;;;;;4962650;28;20083;-60
2022/02/23 05:56:33;;;;;;;23.20;2.80;;;;;;;;;;4944541;28;20145;-61
2022/02/23 05:59:23;;;;;;;24.45;3.15;;;;;;;;;;4946133;28;20034;-58
2022/02/23 06:01:49;;;;;;;15.10;2.85;;;;;;;;;;4964269;28;20069;-61
2022/02/23 06:04:14;;;;;;;15.63;2.40;;;;;;;;;;4964655;28;20156;-60
2022/02/23 06:06:42;;;;;;;12.55;1.65;;;;;;;;;;4965492;28;20050;-59
2022/02/23 06:09:08;;;;;;;16.38;2.88;;;;;;;;;;4963550;28;20034;-60
2022/02/23 06:11:36;;;;;;;14.07;1.67;;;;;;;;;;4937100;28;20708;-58
2022/02/23 06:14:05;;;;;;;22.05;2.40;;;;;;;;;;4961852;28;20815;-59
2022/02/23 06:16:31;;;;;;;23.05;3.60;;;;;;;;;;4964245;28;20457;-59
2022/02/23 06:19:01;;;;;;;15.93;2.28;;;;;;;;;;4962283;28;20030;-59
2022/02/23 06:21:29;;;;;;;16.98;2.50;;;;;;;;;;4934021;28;20038;-59
2022/02/23 06:23:55;;;;;;;13.43;1.63;;;;;;;;;;4948580;28;20042;-59
2022/02/23 06:26:25;;;;;;;26.20;3.00;;;;;;;;;;4964290;28;20026;-59
2022/02/23 06:29:09;;;;;;;18.00;2.17;;;;;;;;;;4947766;28;20715;-59
2022/02/23 06:35:10;;;;;;;20.80;2.63;;;;;;;;;;4962491;28;20169;-62
2022/02/23 06:37:36;;;;;;;15.73;2.33;;;;;;;;;;4946683;28;20425;-61
2022/02/23 06:40:04;;;;;;;13.40;1.65;;;;;;;;;;4942566;28;20434;-60
2022/02/23 06:42:34;;;;;;;26.25;2.95;;;;;;;;;;4961580;28;20045;-59
2022/02/23 06:45:03;;;;;;;19.05;3.60;;;;;;;;;;4962048;28;20026;-59
2022/02/23 06:47:31;;;;;;;13.40;1.55;;;;;;;;;;4948323;28;20157;-59
2022/02/23 06:49:56;;;;;;;16.60;2.17;;;;;;;;;;4959482;28;20038;-59
2022/02/23 06:52:22;;;;;;;13.25;1.77;;;;;;;;;;4960692;28;20034;-58
2022/02/23 06:54:48;;;;;;;18.95;2.50;;;;;;;;;;4956804;28;20057;-59
2022/02/23 06:57:18;;;;;;;17.02;1.75;;;;;;;;;;4968230;28;20104;-60
2022/02/23 06:59:48;;;;;;;21.23;3.17;;;;;;;;;;4978053;28;20045;-59
2022/02/23 07:02:14;;;;;;;23.65;2.70;;;;;;;;;;4962885;28;20121;-60
2022/02/23 07:04:41;;;;;;;14.48;2.53;;;;;;;;;;4965561;28;20042;-59
2022/02/23 07:07:09;;;;;;;21.63;2.97;;;;;;;;;;4964571;28;20041;-60
2022/02/23 07:09:35;;;;;;;14.20;2.00;;;;;;;;;;4981161;28;20867;-60
2022/02/23 07:12:02;;;;;;;9.77;2.70;;;;;;;;;;4966919;28;20096;-59
2022/02/23 07:14:32;;;;;;;24.05;3.20;;;;;;;;;;4949039;28;20026;-59
2022/02/23 07:16:57;;;;;;;14.07;2.72;;;;;;;;;;4975083;28;20038;-59
2022/02/23 07:19:24;;;;;;;32.90;4.13;;;;;;;;;;4954507;28;20041;-59
2022/02/23 07:21:52;;;;;;;20.70;2.55;;;;;;;;;;4964778;28;20145;-59
2022/02/23 07:24:22;;;;;;;13.15;2.05;;;;;;;;;;4954979;28;20160;-59
2022/02/23 07:26:51;;;;;;;21.50;2.53;;;;;;;;;;4964056;28;20034;-59
2022/02/23 07:29:16;;;;;;;12.07;2.85;;;;;;;;;;4966495;28;20613;-59
2022/02/23 07:31:46;;;;;;;16.80;2.65;;;;;;;;;;4979230;28;20025;-60
2022/02/23 07:37:19;;;;;;;19.20;2.35;;;;;;;;;;4983911;28;21055;-60
2022/02/23 07:39:44;;;;;;;15.63;1.85;;;;;;;;;;4949696;28;20038;-60
2022/02/23 07:42:10;;;;;;;18.67;1.95;;;;;;;;;;4949789;28;20543;-60
2022/02/23 07:44:37;;;;;;;19.15;2.70;;;;;;;;;;4965153;28;20026;-60
2022/02/23 07:47:05;;;;;;;6.78;1.67;;;;;;;;;;4979389;28;20096;-60
2022/02/23 07:49:31;;;;;;;21.40;3.50;;;;;;;;;;4962308;28;20060;-59
2022/02/23 07:51:56;;;;;;;14.02;2.47;;;;;;;;;;4968711;28;20048;-59
2022/02/23 07:54:25;;;;;;;9.00;2.10;;;;;;;;;;4971766;28;20391;-60
2022/02/23 07:56:56;;;;;;;20.92;2.58;;;;;;;;;;4950246;28;20433;-59
2022/02/23 07:59:24;;;;;;;16.98;2.42;;;;;;;;;;4957986;28;20049;-60
2022/02/23 08:01:52;;;;;;;19.02;2.83;;;;;;;;;;4944386;28;20576;-61
2022/02/23 08:04:20;;;;;;;15.77;2.35;;;;;;;;;;4940661;28;20042;-60
2022/02/23 08:06:48;;;;;;;12.90;2.65;;;;;;;;;;4948675;28;20045;-60
2022/02/23 08:09:17;;;;;;;11.63;2.20;;;;;;;;;;4959649;28;20386;-61
2022/02/23 08:11:43;;;;;;;12.57;2.38;;;;;;;;;;4960790;28;20086;-61
2022/02/23 08:14:13;;;;;;;15.85;2.45;;;;;;;;;;4959852;28;20057;-60
2022/02/23 08:19:31;;;;;;;13.13;2.28;;;;;;;;;;4958274;28;20452;-60
2022/02/23 08:21:59;;;;;;;14.33;2.47;;;;;;;;;;4947577;28;20031;-59
2022/02/23 08:24:28;;;;;;;11.23;2.33;;;;;;;;;;4930035;28;20030;-60
2022/02/23 08:26:56;;;;;;;16.52;3.15;;;;;;;;;;4960807;28;20038;-60
2022/02/23 08:29:22;;;;;;;17.08;2.72;;;;;;;;;;4960445;28;20124;-60
2022/02/23 08:35:01;;;;;;;13.30;2.10;;;;;;;;;;4950414;28;20104;-61
2022/02/23 08:40:36;;;;;;;15.18;1.92;;;;;;;;;;4959105;28;20030;-61
2022/02/23 08:43:06;;;;;;;11.55;2.03;;;;;;;;;;4942828;28;20034;-61
2022/02/23 08:49:13;;;;;;;19.80;2.33;;;;;;;;;;4957533;28;20038;-59
2022/02/23 08:51:42;;;;;;;15.80;2.38;;;;;;;;;;4958421;28;20046;-59
2022/02/23 08:54:13;;;;;;;18.65;2.53;;;;;;;;;;4953086;28;20079;-60
2022/02/23 08:56:39;;;;;;;13.57;3.05;;;;;;;;;;4959720;28;20154;-60
2022/02/23 08:59:05;;;;;;;19.42;2.72;;;;;;;;;;4946983;28;22736;-59
2022/02/23 09:01:33;;;;;;;20.15;3.50;;;;;;;;;;4959195;28;20071;-61
2022/02/23 09:04:04;;;;;;;17.15;2.70;;;;;;;;;;4944250;28;20140;-61
2022/02/23 09:06:32;;;;;;;21.70;3.25;;;;;;;;;;4958128;28;20077;-60
2022/02/23 09:08:59;;;;;;;16.50;2.90;;;;;;;;;;4956408;28;21222;-60
2022/02/23 09:11:27;;;;;;;18.17;2.63;;;;;;;;;;4957012;28;20023;-61
2022/02/23 09:13:52;;;;;;;24.85;3.22;;;;;;;;;;4957371;28;20030;-60
2022/02/23 09:19:56;;;;;;;13.55;3.00;;;;;;;;;;4956801;28;20137;-60
2022/02/23 09:22:22;;;;;;;13.40;2.28;;;;;;;;;;4942662;28;20038;-60
2022/02/23 09:24:51;;;;;;;10.05;1.80;;;;;;;;;;4947278;28;20041;-59
2022/02/23 09:27:18;;;;;;;18.58;2.42;;;;;;;;;;4927291;28;20736;-60
2022/02/23 09:30:17;;;;;;;21.92;2.78;;;;;;;;;;4958766;28;20034;-58
2022/02/23 09:33:02;;;;;;;20.38;3.38;;;;;;;;;;4957185;28;20030;-60
2022/02/23 09:35:30;;;;;;;17.52;2.38;;;;;;;;;;4941804;28;20149;-59
2022/02/23 09:41:33;;;;;;;15.07;2.42;;;;;;;;;;4961831;28;20225;-59
2022/02/23 09:44:01;;;;;;;12.40;2.00;;;;;;;;;;4951439;28;20030;-58
2022/02/23 09:46:28;;;;;;;24.02;2.70;;;;;;;;;;4944369;28;20030;-58
2022/02/23 09:49:12;;;;;;;14.15;2.05;;;;;;;;;;4960869;28;20200;-61
2022/02/23 09:51:40;;;;;;;13.10;2.83;;;;;;;;;;4961108;28;20041;-59
2022/02/23 10:01:59;;;;;;;13.93;1.95;;;;;;;;;;4963726;28;20126;-59
2022/02/23 10:04:40;;;;;;;17.88;2.30;;;;;;;;;;4963987;28;20070;-61
2022/02/23 10:07:09;;;;;;;9.05;2.38;;;;;;;;;;4946449;28;20474;-58
2022/02/23 10:09:47;;;;;;;10.60;1.90;;;;;;;;;;4962564;28;20025;-59
2022/02/23 10:12:24;;;;;;;13.38;2.20;;;;;;;;;;4963102;28;20034;-59
2022/02/23 10:15:05;;;;;;;11.77;2.08;;;;;;;;;;4944227;28;20034;-59
2022/02/23 10:17:44;;;;;;;12.48;2.45;;;;;;;;;;4963068;28;20037;-59
2022/02/23 10:20:34;;;;;;;10.45;1.52;;;;;;;;;;4959205;28;20089;-59
2022/02/23 10:23:05;;;;;;;8.70;1.40;;;;;;;;;;4961938;28;20118;-60
2022/02/23 10:29:10;;;;;;;9.25;1.92;;;;;;;;;;4960194;28;20060;-59
2022/02/23 10:31:48;;;;;;;6.43;1.23;;;;;;;;;;4959035;28;20033;-59
2022/02/23 10:34:20;;;;;;;12.95;1.85;;;;;;;;;;4960269;28;20136;-59
2022/02/23 10:36:59;;;;;;;9.45;1.42;;;;;;;;;;4933382;28;20161;-60
2022/02/23 10:39:35;;;;;;;12.48;1.70;;;;;;;;;;4948047;28;20069;-59
2022/02/23 10:42:05;;;;;;;12.55;1.75;;;;;;;;;;4961978;28;20136;-59
2022/02/23 10:44:33;;;;;;;11.38;2.10;;;;;;;;;;4924716;28;20027;-61
2022/02/23 10:47:42;;;;;;;8.57;1.27;;;;;;;;;;4955020;28;20027;-59
2022/02/23 10:50:15;;;;;;;10.45;1.38;;;;;;;;;;4884703;29;20044;-59
2022/02/23 10:52:52;;;;;;;4.22;1.33;;;;;;;;;;4901025;29;20814;-59
2022/02/23 10:55:30;;;;;;;7.28;1.60;;;;;;;;;;4949090;28;20065;-59
2022/02/23 10:57:58;;;;;;;7.38;2.00;;;;;;;;;;4980979;28;20262;-59
2022/02/23 11:00:27;;;;;;;11.10;1.48;;;;;;;;;;4979604;28;20501;-59
2022/02/23 11:09:48;;;;;;;4.18;1.13;;;;;;;;;;4977830;28;20024;-59
2022/02/23 11:12:15;;;;;;;7.72;2.05;;;;;;;;;;4963834;28;20105;-60
2022/02/23 11:14:52;;;;;;;6.60;1.63;;;;;;;;;;4959749;28;20770;-59
2022/02/23 11:17:26;;;;;;;5.75;1.88;;;;;;;;;;4967805;28;20068;-59
2022/02/23 11:19:53;;;;;;;6.50;1.15;;;;;;;;;;4948318;28;20042;-60
2022/02/23 11:22:19;;;;;;;7.03;1.40;;;;;;;;;;4982086;28;20116;-59
2022/02/23 11:27:56;;;;;;;5.03;1.23;;;;;;;;;;4979321;28;20046;-59
2022/02/23 11:30:25;;;;;;;8.85;1.35;;;;;;;;;;4969769;28;20160;-60
2022/02/23 11:32:50;;;;;;;8.75;1.35;;;;;;;;;;4962325;28;20041;-60
2022/02/23 11:38:28;;;;;;;11.43;1.63;;;;;;;;;;4980934;28;20087;-60
2022/02/23 11:40:56;;;;;;;5.18;1.50;;;;;;;;;;4971135;28;20846;-60
2022/02/23 11:43:42;;;;;;;4.18;1.70;;;;;;;;;;4966781;28;20062;-60
2022/02/23 11:46:09;;;;;;;8.40;1.52;;;;;;;;;;4961275;28;20988;-60
2022/02/23 11:48:59;;;;;;;15.05;1.60;;;;;;;;;;4980969;28;20045;-59
2022/02/23 11:51:40;;;;;;;8.93;1.75;;;;;;;;;;4982576;28;20076;-60
2022/02/23 11:54:05;;;;;;;6.30;1.13;;;;;;;;;;4949462;28;20030;-60
2022/02/23 11:56:51;;;;;;;8.48;1.23;;;;;;;;;;4968219;28;21868;-60
2022/02/23 11:59:35;;;;;;;11.40;1.55;;;;;;;;;;4978246;28;20045;-58
2022/02/23 12:02:11;;;;;;;8.57;1.75;;;;;;;;;;4979902;28;20064;-58
2022/02/23 12:05:00;;;;;;;10.90;1.45;;;;;;;;;;4979030;28;20083;-61
2022/02/23 12:11:07;;;;;;;12.82;1.55;;;;;;;;;;4980130;28;20116;-60
2022/02/23 12:13:37;;;;;;;5.43;1.55;;;;;;;;;;4979796;28;20493;-59
2022/02/23 12:16:18;;;;;;;9.95;1.48;;;;;;;;;;4976826;28;20120;-59
2022/02/23 12:18:48;;;;;;;9.10;1.75;;;;;;;;;;4977754;28;20033;-58
2022/02/23 12:21:15;;;;;;;7.07;1.60;;;;;;;;;;4951623;28;20041;-59
2022/02/23 12:24:05;;;;;;;9.10;1.60;;;;;;;;;;4965250;28;20111;-58
2022/02/23 12:26:40;;;;;;;15.65;1.85;;;;;;;;;;4963715;28;20156;-60
2022/02/23 12:29:09;;;;;;;7.43;1.70;;;;;;;;;;4976974;28;20045;-59
2022/02/23 12:31:35;;;;;;;8.13;1.52;;;;;;;;;;4979131;28;20022;-61
2022/02/23 12:34:02;;;;;;;7.13;1.48;;;;;;;;;;4961647;28;20038;-59
2022/02/23 12:36:48;;;;;;;11.82;2.20;;;;;;;;;;4977606;28;21342;-60
2022/02/23 12:39:19;;;;;;;5.95;1.38;;;;;;;;;;4977457;28;20079;-60
2022/02/23 12:41:46;;;;;;;7.55;2.15;;;;;;;;;;4963739;28;20034;-60
2022/02/23 12:44:20;;;;;;;6.75;1.10;;;;;;;;;;4948060;28;20038;-59
2022/02/23 12:47:19;;;;;;;12.57;1.77;;;;;;;;;;4945877;28;20720;-60
2022/02/23 12:49:45;;;;;;;11.15;1.98;;;;;;;;;;4964435;28;20090;-58
2022/02/23 12:52:11;;;;;;;12.43;1.80;;;;;;;;;;4963655;28;20065;-59
2022/02/23 12:54:37;;;;;;;5.25;1.17;;;;;;;;;;4949810;28;20059;-59
2022/02/23 12:57:06;;;;;;;9.77;1.50;;;;;;;;;;4977277;28;20038;-59
2022/02/23 12:59:35;;;;;;;7.43;1.50;;;;;;;;;;4977314;28;20053;-58
2022/02/23 13:05:41;;;;;;;6.43;1.40;;;;;;;;;;4978081;28;20297;-59
2022/02/23 13:08:29;;;;;;;8.95;1.92;;;;;;;;;;4979106;28;20117;-60
2022/02/23 13:10:58;;;;;;;11.57;1.30;;;;;;;;;;4978045;28;20052;-59
2022/02/23 13:13:44;;;;;;;7.13;1.60;;;;;;;;;;4981144;28;20026;-59
2022/02/23 13:16:10;;;;;;;7.70;1.20;;;;;;;;;;4979022;28;20141;-59
2022/02/23 13:18:45;;;;;;;7.15;1.83;;;;;;;;;;4977794;28;20065;-59
2022/02/23 13:21:13;;;;;;;5.65;1.13;;;;;;;;;;4948164;28;21024;-59
2022/02/23 13:23:49;;;;;;;5.15;1.58;;;;;;;;;;4982523;28;20493;-59
2022/02/23 13:26:14;;;;;;;6.05;1.45;;;;;;;;;;4965047;28;20030;-59
2022/02/23 13:29:02;;;;;;;4.63;1.40;;;;;;;;;;4964771;28;20574;-60
2022/02/23 13:31:35;;;;;;;7.15;1.35;;;;;;;;;;4980722;28;21649;-59
2022/02/23 13:37:40;;;;;;;6.80;1.33;;;;;;;;;;4984046;28;20687;-59
2022/02/23 13:40:17;;;;;;;5.88;1.60;;;;;;;;;;4980524;28;20151;-60
2022/02/23 13:42:47;;;;;;;7.47;1.67;;;;;;;;;;4968002;28;20644;-60
2022/02/23 13:45:15;;;;;;;9.50;1.63;;;;;;;;;;4962442;28;20760;-61
2022/02/23 13:47:54;;;;;;;4.55;1.40;;;;;;;;;;4983747;28;20042;-60
2022/02/23 13:50:30;;;;;;;4.97;1.20;;;;;;;;;;4980378;28;20072;-60
2022/02/23 13:53:03;;;;;;;3.70;1.20;;;;;;;;;;4949207;28;20034;-59
2022/02/23 13:55:43;;;;;;;5.93;1.25;;;;;;;;;;4943792;28;20049;-59
2022/02/23 14:01:23;;;;;;;5.65;0.95;;;;;;;;;;4945866;28;20073;-58
2022/02/23 14:03:50;;;;;;;9.77;1.90;;;;;;;;;;4933757;28;20037;-60
2022/02/23 14:06:26;;;;;;;10.45;2.05;;;;;;;;;;4957933;28;20039;-58
2022/02/23 14:08:58;;;;;;;10.88;1.23;;;;;;;;;;4946408;28;20276;-59
2022/02/23 14:11:51;;;;;;;11.95;1.75;;;;;;;;;;4961001;28;20037;-58
2022/02/23 14:14:21;;;;;;;10.23;1.45;;;;;;;;;;4945518;28;20037;-60
2022/02/23 14:16:47;;;;;;;14.57;2.08;;;;;;;;;;4960009;28;20042;-61
2022/02/23 14:23:13;;;;;;;7.63;1.60;;;;;;;;;;4960660;28;20073;-59
2022/02/23 14:25:39;;;;;;;9.38;1.50;;;;;;;;;;4944736;28;20034;-60
2022/02/23 14:28:05;;;;;;;13.52;1.67;;;;;;;;;;4960744;28;20117;-61
2022/02/23 14:30:35;;;;;;;8.52;1.70;;;;;;;;;;4947148;28;20494;-59
2022/02/23 14:36:36;;;;;;;7.13;1.73;;;;;;;;;;4961317;28;20107;-61
2022/02/23 14:39:14;;;;;;;6.93;1.88;;;;;;;;;;4960627;28;21325;-62
2022/02/23 14:41:40;;;;;;;12.77;1.70;;;;;;;;;;4946276;28;20064;-59
2022/02/23 14:44:18;;;;;;;6.60;1.25;;;;;;;;;;4964808;28;20049;-59
2022/02/23 14:46:47;;;;;;;7.78;0.98;;;;;;;;;;4947605;28;20109;-63
2022/02/23 14:49:12;;;;;;;12.38;1.52;;;;;;;;;;4963022;28;21627;-63
2022/02/23 14:55:14;;;;;;;9.02;1.52;;;;;;;;;;4962715;28;20036;-62
2022/02/23 14:57:51;;;;;;;14.35;1.40;;;;;;;;;;4977741;28;20106;-62
2022/02/23 15:00:18;;;;;;;3.78;1.45;;;;;;;;;;4961285;28;20042;-60
2022/02/23 15:03:01;;;;;;;11.80;1.77;;;;;;;;;;4981270;28;20553;-62
2022/02/23 15:05:29;;;;;;;4.47;1.13;;;;;;;;;;4967855;28;20045;-62
2022/02/23 15:11:33;;;;;;;6.43;1.23;;;;;;;;;;4980869;28;20084;-60
2022/02/23 15:14:01;;;;;;;8.43;1.38;;;;;;;;;;4979082;28;20038;-66
2022/02/23 15:16:27;;;;;;;6.25;1.40;;;;;;;;;;4979641;28;20081;-59
2022/02/23 15:18:53;;;;;;;8.00;1.08;;;;;;;;;;4980536;28;20030;-59
2022/02/23 15:21:23;;;;;;;5.15;1.20;;;;;;;;;;4950472;28;20425;-66
2022/02/23 15:23:49;;;;;;;7.13;1.45;;;;;;;;;;4979989;28;20030;-63
2022/02/23 15:26:14;;;;;;;5.43;0.98;;;;;;;;;;4949844;28;20040;-62
2022/02/23 15:28:44;;;;;;;9.65;1.27;;;;;;;;;;4979823;28;21329;-61
2022/02/23 15:31:13;;;;;;;6.10;1.30;;;;;;;;;;4968107;28;20061;-62
2022/02/23 15:33:39;;;;;;;9.88;1.63;;;;;;;;;;4977360;28;20058;-58
2022/02/23 15:36:23;;;;;;;7.40;0.98;;;;;;;;;;4971976;28;21918;-63
2022/02/23 15:38:51;;;;;;;5.68;1.10;;;;;;;;;;4960665;28;20446;-61
2022/02/23 15:41:19;;;;;;;5.97;1.13;;;;;;;;;;4969865;28;21046;-62
2022/02/23 15:43:45;;;;;;;7.63;1.35;;;;;;;;;;4951417;28;20033;-60
2022/02/23 15:46:12;;;;;;;8.02;1.98;;;;;;;;;;4968925;28;20046;-62
2022/02/23 15:48:38;;;;;;;4.07;1.17;;;;;;;;;;4959581;28;20194;-59
2022/02/23 15:51:03;;;;;;;7.65;1.50;;;;;;;;;;4962486;28;20038;-62
2022/02/23 15:53:29;;;;;;;17.02;1.60;;;;;;;;;;4959419;28;20042;-62
2022/02/23 15:55:54;;;;;;;8.18;1.48;;;;;;;;;;4960940;28;20124;-61
2022/02/23 15:58:20;;;;;;;11.77;1.73;;;;;;;;;;4949120;28;20049;-60
2022/02/23 16:00:47;;;;;;;7.30;1.85;;;;;;;;;;4977892;28;20065;-61
2022/02/23 16:03:13;;;;;;;8.65;1.85;;;;;;;;;;4968172;28;20056;-60
2022/02/23 16:05:40;;;;;;;6.35;1.40;;;;;;;;;;4979009;28;20042;-65
2022/02/23 16:08:08;;;;;;;10.38;2.00;;;;;;;;;;4979184;28;20026;-61